createdAt,value
2022-10-10T00:00:52.998Z,10.00
2022-10-10T00:03:21.622Z,10.00
2022-10-10T00:05:49.718Z,10.00
2022-10-10T00:08:17.675Z,10.10
2022-10-10T00:10:47.057Z,10.00
2022-10-10T00:13:15.082Z,10.00
2022-10-10T00:15:48.021Z,10.00
2022-10-10T00:18:17.245Z,9.90
2022-10-10T00:20:45.541Z,9.90
2022-10-10T00:23:13.546Z,9.90
2022-10-10T00:25:41.598Z,9.90
2022-10-10T00:28:10.939Z,9.90
2022-10-10T00:30:39.050Z,9.90
2022-10-10T00:33:07.110Z,9.80
2022-10-10T00:35:35.238Z,9.90
2022-10-10T00:38:03.600Z,9.90
2022-10-10T00:40:31.943Z,9.90
2022-10-10T00:43:00.138Z,9.90
2022-10-10T00:45:34.074Z,9.80
2022-10-10T00:48:05.482Z,9.80
2022-10-10T00:50:36.184Z,9.80
2022-10-10T00:53:06.179Z,9.80
2022-10-10T00:55:34.773Z,9.80
2022-10-10T00:58:03.168Z,9.70
2022-10-10T01:00:32.567Z,9.80
2022-10-10T01:03:00.706Z,9.70
2022-10-10T01:05:28.825Z,9.70
2022-10-10T01:07:57.548Z,9.70
2022-10-10T01:10:26.259Z,9.70
2022-10-10T01:13:05.039Z,9.70
2022-10-10T01:15:45.780Z,9.60
2022-10-10T01:18:20.431Z,9.60
2022-10-10T01:21:06.428Z,9.70
2022-10-10T01:24:01.729Z,9.70
2022-10-10T01:26:51.457Z,9.70
2022-10-10T01:29:26.877Z,9.70
2022-10-10T01:31:58.321Z,9.60
2022-10-10T01:34:32.188Z,9.60
2022-10-10T01:37:05.524Z,9.60
2022-10-10T01:39:42.890Z,9.60
2022-10-10T01:42:15.967Z,9.60
2022-10-10T01:44:47.352Z,9.60
2022-10-10T01:47:16.098Z,9.60
2022-10-10T01:49:45.903Z,9.60
2022-10-10T01:52:24.084Z,9.50
2022-10-10T01:55:01.282Z,9.50
2022-10-10T01:57:38.438Z,9.50
2022-10-10T02:00:15.345Z,9.50
2022-10-10T02:02:50.749Z,9.50
2022-10-10T02:05:24.036Z,9.50
2022-10-10T02:07:56.469Z,9.50
2022-10-10T02:10:28.594Z,9.50
2022-10-10T02:12:58.340Z,9.50
2022-10-10T02:15:32.264Z,9.50
2022-10-10T02:18:02.803Z,9.40
2022-10-10T02:20:32.064Z,9.40
2022-10-10T02:23:00.676Z,9.40
2022-10-10T02:25:32.528Z,9.40
2022-10-10T02:28:09.071Z,9.40
2022-10-10T02:30:41.869Z,9.30
2022-10-10T02:33:10.522Z,9.30
2022-10-10T02:35:43.878Z,9.30
2022-10-10T02:38:15.005Z,9.30
2022-10-10T02:40:46.577Z,9.30
2022-10-10T02:43:16.531Z,9.30
2022-10-10T02:45:46.369Z,9.20
2022-10-10T02:48:14.471Z,9.20
2022-10-10T02:50:42.517Z,9.30
2022-10-10T02:53:10.566Z,9.20
2022-10-10T02:55:38.599Z,9.20
2022-10-10T02:58:07.034Z,9.20
2022-10-10T03:00:35.054Z,9.10
2022-10-10T03:03:04.539Z,9.20
2022-10-10T03:05:32.523Z,9.20
2022-10-10T03:08:00.496Z,9.10
2022-10-10T03:10:28.524Z,9.10
2022-10-10T03:12:56.490Z,9.10
2022-10-10T03:15:24.482Z,9.20
2022-10-10T03:17:52.479Z,9.10
2022-10-10T03:20:21.913Z,9.20
2022-10-10T03:22:50.146Z,9.10
2022-10-10T03:25:18.494Z,9.10
2022-10-10T03:27:46.715Z,9.10
2022-10-10T03:30:14.986Z,9.10
2022-10-10T03:32:42.955Z,9.10
2022-10-10T03:35:10.957Z,9.10
2022-10-10T03:37:40.290Z,9.10
2022-10-10T03:40:08.920Z,9.00
2022-10-10T03:42:36.907Z,9.00
2022-10-10T03:45:05.763Z,9.00
2022-10-10T03:47:33.778Z,9.00
2022-10-10T03:50:01.914Z,9.00
2022-10-10T03:52:29.983Z,9.00
2022-10-10T03:54:59.362Z,9.00
2022-10-10T03:57:27.309Z,9.00
2022-10-10T03:59:55.447Z,9.00
2022-10-10T04:02:23.425Z,9.00
2022-10-10T04:04:51.425Z,9.00
2022-10-10T04:07:20.319Z,9.00
2022-10-10T04:09:48.305Z,8.90
2022-10-10T04:12:17.722Z,8.90
2022-10-10T04:14:45.726Z,8.90
2022-10-10T04:17:13.836Z,8.90
2022-10-10T04:19:41.823Z,8.80
2022-10-10T04:22:11.245Z,8.80
2022-10-10T04:24:39.517Z,8.80
2022-10-10T04:27:07.507Z,8.80
2022-10-10T04:29:37.667Z,8.90
2022-10-10T04:32:05.721Z,8.90
2022-10-10T04:34:33.882Z,8.80
2022-10-10T04:37:01.888Z,8.80
2022-10-10T04:39:29.889Z,8.80
2022-10-10T04:41:57.931Z,8.80
2022-10-10T04:44:26.015Z,8.80
2022-10-10T04:46:55.419Z,8.80
2022-10-10T04:49:23.630Z,8.90
2022-10-10T04:51:51.634Z,8.80
2022-10-10T04:54:19.650Z,8.80
2022-10-10T04:56:47.736Z,8.80
2022-10-10T04:59:15.789Z,8.70
2022-10-10T05:01:43.817Z,8.80
2022-10-10T05:04:14.546Z,8.80
2022-10-10T05:06:42.549Z,8.80
2022-10-10T05:09:10.607Z,8.80
2022-10-10T05:11:38.655Z,8.80
2022-10-10T05:14:06.762Z,8.70
2022-10-10T05:16:34.918Z,8.70
2022-10-10T05:19:02.976Z,8.70
2022-10-10T05:21:32.602Z,8.70
2022-10-10T05:24:00.599Z,8.70
2022-10-10T05:26:28.626Z,8.70
2022-10-10T05:28:56.629Z,8.70
2022-10-10T05:31:24.603Z,8.70
2022-10-10T05:33:52.748Z,8.70
2022-10-10T05:36:20.796Z,8.60
2022-10-10T05:38:50.404Z,8.60
2022-10-10T05:41:18.454Z,8.60
2022-10-10T05:43:46.456Z,8.60
2022-10-10T05:46:14.588Z,8.60
2022-10-10T05:48:42.659Z,8.70
2022-10-10T05:51:11.019Z,8.70
2022-10-10T05:53:40.263Z,8.60
2022-10-10T05:56:09.896Z,8.70
2022-10-10T05:58:38.586Z,8.60
2022-10-10T06:01:08.849Z,8.70
2022-10-10T06:03:38.483Z,8.70
2022-10-10T06:06:07.440Z,8.70
2022-10-10T06:08:35.780Z,8.70
2022-10-10T06:11:06.322Z,8.70
2022-10-10T06:13:36.657Z,8.70
2022-10-10T06:16:06.099Z,8.70
2022-10-10T06:18:35.093Z,8.80
2022-10-10T06:21:04.314Z,8.80
2022-10-10T06:23:32.920Z,8.90
2022-10-10T06:26:02.059Z,9.00
2022-10-10T06:28:31.924Z,9.00
2022-10-10T06:31:04.417Z,9.00
2022-10-10T06:33:34.738Z,9.10
2022-10-10T06:36:06.948Z,9.20
2022-10-10T06:38:39.450Z,9.20
2022-10-10T06:41:09.678Z,9.30
2022-10-10T06:43:39.076Z,9.40
2022-10-10T06:46:10.411Z,9.50
2022-10-10T06:48:41.646Z,9.60
2022-10-10T06:51:14.364Z,9.70
2022-10-10T06:53:44.105Z,9.80
2022-10-10T06:56:17.665Z,9.90
2022-10-10T06:58:46.098Z,10.00
2022-10-10T07:01:18.127Z,10.00
2022-10-10T07:03:46.480Z,10.10
2022-10-10T07:06:15.339Z,10.20
2022-10-10T07:08:43.458Z,10.30
2022-10-10T07:11:11.538Z,10.50
2022-10-10T07:13:39.842Z,10.50
2022-10-10T07:16:08.267Z,10.60
2022-10-10T07:18:37.774Z,10.70
2022-10-10T07:21:06.626Z,10.80
2022-10-10T07:23:36.511Z,10.90
2022-10-10T07:26:06.789Z,11.10
2022-10-10T07:28:35.352Z,11.10
2022-10-10T07:31:05.770Z,11.20
2022-10-10T07:33:35.360Z,11.30
2022-10-10T07:36:05.756Z,11.50
2022-10-10T07:38:33.950Z,11.70
2022-10-10T07:41:02.315Z,11.80
2022-10-10T07:43:30.301Z,12.00
2022-10-10T07:45:58.293Z,12.10
2022-10-10T07:48:26.333Z,12.20
2022-10-10T07:50:54.354Z,12.30
2022-10-10T07:53:24.064Z,12.40
2022-10-10T07:55:52.149Z,12.60
2022-10-10T07:58:20.626Z,12.80
2022-10-10T08:00:48.636Z,12.90
2022-10-10T08:03:16.980Z,13.00
2022-10-10T08:05:46.977Z,13.00
2022-10-10T08:08:15.024Z,13.20
2022-10-10T08:10:45.569Z,13.30
2022-10-10T08:13:13.584Z,13.50
2022-10-10T08:15:41.930Z,13.50
2022-10-10T08:18:09.942Z,13.70
2022-10-10T08:20:37.969Z,13.80
2022-10-10T08:23:05.968Z,14.00
2022-10-10T08:25:33.959Z,14.20
2022-10-10T08:28:03.360Z,14.50
2022-10-10T08:30:31.395Z,14.70
2022-10-10T08:32:59.477Z,14.80
2022-10-10T08:35:27.508Z,14.90
2022-10-10T08:37:55.901Z,15.00
2022-10-10T08:40:28.681Z,14.90
2022-10-10T08:43:01.441Z,15.00
2022-10-10T08:45:34.208Z,15.10
2022-10-10T08:48:05.866Z,15.20
2022-10-10T08:50:37.564Z,15.40
2022-10-10T08:53:10.418Z,15.50
2022-10-10T08:55:43.503Z,15.50
2022-10-10T08:58:17.301Z,15.60
2022-10-10T09:00:49.714Z,15.90
2022-10-10T09:03:25.195Z,15.90
2022-10-10T09:06:08.461Z,16.00
2022-10-10T09:08:48.775Z,16.10
2022-10-10T09:11:27.766Z,16.30
2022-10-10T09:14:07.614Z,16.20
2022-10-10T09:16:44.460Z,16.30
2022-10-10T09:19:24.634Z,16.40
2022-10-10T09:21:57.762Z,16.50
2022-10-10T09:24:29.492Z,16.50
2022-10-10T09:27:03.831Z,16.50
2022-10-10T09:29:39.055Z,16.70
2022-10-10T09:32:13.050Z,16.90
2022-10-10T09:34:43.991Z,16.80
2022-10-10T09:37:24.278Z,17.10
2022-10-10T09:40:02.063Z,17.40
2022-10-10T09:42:35.806Z,17.50
2022-10-10T09:45:04.627Z,17.40
2022-10-10T09:47:34.608Z,17.30
2022-10-10T09:52:35.498Z,17.50
2022-10-10T09:55:06.970Z,17.40
2022-10-10T09:57:39.275Z,17.40
2022-10-10T10:00:33.515Z,17.50
2022-10-10T10:03:16.918Z,17.90
2022-10-10T10:05:56.041Z,17.70
2022-10-10T10:08:27.535Z,17.90
2022-10-10T10:10:58.586Z,17.90
2022-10-10T10:13:29.836Z,17.70
2022-10-10T10:16:05.526Z,17.70
2022-10-10T10:18:40.483Z,17.80
2022-10-10T10:21:26.746Z,18.10
2022-10-10T10:23:58.157Z,18.40
2022-10-10T10:26:30.371Z,18.30
2022-10-10T10:28:59.325Z,18.10
2022-10-10T10:31:54.566Z,18.10
2022-10-10T10:34:49.323Z,18.00
2022-10-10T10:37:23.234Z,18.10
2022-10-10T10:40:18.775Z,18.30
2022-10-10T10:43:15.875Z,18.20
2022-10-10T10:45:54.757Z,18.30
2022-10-10T10:48:29.158Z,18.20
2022-10-10T10:51:03.994Z,18.20
2022-10-10T10:53:40.562Z,18.00
2022-10-10T10:56:20.820Z,18.20
2022-10-10T11:01:58.537Z,18.20
2022-10-10T11:05:24.936Z,18.50
2022-10-10T11:07:54.478Z,18.80
2022-10-10T11:10:31.501Z,19.20
2022-10-10T11:13:08.827Z,19.20
2022-10-10T11:18:36.494Z,18.70
2022-10-10T11:21:10.241Z,18.60
2022-10-10T11:23:44.505Z,18.50
2022-10-10T11:26:19.315Z,18.60
2022-10-10T11:28:52.460Z,18.70
2022-10-10T11:31:25.287Z,18.90
2022-10-10T11:33:57.678Z,19.10
2022-10-10T11:36:29.843Z,19.30
2022-10-10T11:39:04.545Z,19.20
2022-10-10T11:41:38.992Z,19.10
2022-10-10T11:44:13.306Z,18.60
2022-10-10T11:46:46.693Z,18.30
2022-10-10T11:49:21.178Z,18.20
2022-10-10T11:52:33.202Z,18.20
2022-10-10T11:55:11.351Z,18.10
2022-10-10T11:57:44.155Z,18.10
2022-10-10T12:00:15.960Z,18.10
2022-10-10T12:02:45.549Z,18.10
2022-10-10T12:05:22.767Z,18.10
2022-10-10T12:08:05.795Z,18.10
2022-10-10T12:10:39.312Z,18.20
2022-10-10T12:13:28.935Z,18.10
2022-10-10T12:15:59.799Z,18.20
2022-10-10T12:18:31.859Z,18.20
2022-10-10T12:21:12.124Z,18.10
2022-10-10T12:23:42.843Z,18.20
2022-10-10T12:26:24.370Z,18.20
2022-10-10T12:29:05.594Z,18.20
2022-10-10T12:31:36.236Z,18.20
2022-10-10T12:34:25.723Z,18.10
2022-10-10T12:37:11.419Z,18.10
2022-10-10T12:40:00.386Z,18.00
2022-10-10T12:42:35.166Z,18.10
2022-10-10T12:45:03.383Z,18.10
2022-10-10T12:48:04.104Z,18.10
2022-10-10T12:50:34.444Z,18.00
2022-10-10T12:53:05.304Z,18.10
2022-10-10T12:55:41.799Z,18.20
2022-10-10T12:58:26.613Z,18.20
2022-10-10T13:00:57.401Z,18.30
2022-10-10T13:03:30.869Z,18.30
2022-10-10T13:06:04.474Z,18.30
2022-10-10T13:08:33.061Z,18.20
2022-10-10T13:11:06.950Z,18.20
2022-10-10T13:13:36.393Z,18.10
2022-10-10T13:16:09.858Z,17.90
2022-10-10T13:18:40.168Z,17.90
2022-10-10T13:21:10.052Z,18.00
2022-10-10T13:23:42.075Z,17.90
2022-10-10T13:26:22.254Z,17.80
2022-10-10T13:28:52.531Z,17.80
2022-10-10T13:31:20.851Z,17.80
2022-10-10T13:33:48.884Z,17.70
2022-10-10T13:36:21.728Z,17.70
2022-10-10T13:38:50.406Z,17.80
2022-10-10T13:41:19.055Z,17.90
2022-10-10T13:43:47.170Z,17.90
2022-10-10T13:46:23.844Z,17.90
2022-10-10T13:48:51.857Z,17.90
2022-10-10T13:51:20.297Z,17.90
2022-10-10T13:53:53.849Z,17.80
2022-10-10T13:56:26.591Z,17.80
2022-10-10T13:58:57.264Z,17.70
2022-10-10T14:01:33.018Z,17.70
2022-10-10T14:04:08.881Z,17.70
2022-10-10T14:06:37.326Z,17.70
2022-10-10T14:09:10.906Z,17.60
2022-10-10T14:11:41.302Z,17.60
2022-10-10T14:14:16.179Z,17.50
2022-10-10T14:16:45.557Z,17.50
2022-10-10T14:19:18.890Z,17.50
2022-10-10T14:21:46.972Z,17.50
2022-10-10T14:24:16.212Z,17.50
2022-10-10T14:26:44.424Z,17.50
2022-10-10T14:29:15.366Z,17.50
2022-10-10T14:31:46.283Z,17.40
2022-10-10T14:34:15.305Z,17.30
2022-10-10T14:36:47.597Z,17.30
2022-10-10T14:39:18.582Z,17.20
2022-10-10T14:41:48.389Z,17.20
2022-10-10T14:44:17.386Z,17.10
2022-10-10T14:46:48.381Z,17.10
2022-10-10T14:49:20.869Z,17.10
2022-10-10T14:51:51.279Z,17.00
2022-10-10T14:54:20.668Z,17.00
2022-10-10T14:57:07.714Z,17.00
2022-10-10T14:59:48.396Z,16.90
2022-10-10T15:02:24.454Z,16.90
2022-10-10T15:05:02.722Z,16.80
2022-10-10T15:07:31.421Z,16.80
2022-10-10T15:10:32.073Z,16.70
2022-10-10T15:12:50.153Z,16.60
2022-10-10T15:15:19.472Z,16.60
2022-10-10T15:20:45.776Z,16.50
2022-10-10T15:23:15.003Z,16.40
2022-10-10T15:25:45.903Z,16.40
2022-10-10T15:28:14.178Z,16.30
2022-10-10T15:30:45.889Z,16.00
2022-10-10T15:33:15.467Z,15.80
2022-10-10T15:36:08.149Z,15.70
2022-10-10T15:38:33.972Z,15.60
2022-10-10T15:41:04.504Z,15.40
2022-10-10T15:43:42.694Z,15.30
2022-10-10T15:46:11.618Z,15.20
2022-10-10T15:48:41.277Z,15.10
2022-10-10T15:51:11.018Z,15.00
2022-10-10T15:53:40.743Z,14.90
2022-10-10T15:59:09.753Z,14.90
2022-10-10T16:01:39.886Z,14.90
2022-10-10T16:04:11.852Z,14.80
2022-10-10T16:06:44.373Z,14.80
2022-10-10T16:09:28.255Z,14.70
2022-10-10T16:11:57.671Z,14.70
2022-10-10T16:14:27.016Z,14.70
2022-10-10T16:17:00.347Z,14.60
2022-10-10T16:19:31.397Z,14.60
2022-10-10T16:22:00.432Z,14.50
2022-10-10T16:24:29.441Z,14.50
2022-10-10T16:27:02.063Z,14.50
2022-10-10T16:29:30.250Z,14.50
2022-10-10T16:32:00.819Z,14.40
2022-10-10T16:34:32.012Z,14.40
2022-10-10T16:37:01.989Z,14.30
2022-10-10T16:39:31.306Z,14.30
2022-10-10T16:42:00.984Z,14.20
2022-10-10T16:44:29.878Z,14.20
2022-10-10T16:46:58.759Z,14.10
2022-10-10T16:49:30.252Z,14.10
2022-10-10T16:52:04.826Z,14.10
2022-10-10T16:54:34.142Z,14.00
2022-10-10T16:57:03.075Z,13.90
2022-10-10T16:59:32.323Z,13.60
2022-10-10T17:02:00.531Z,13.40
2022-10-10T17:04:30.443Z,13.20
2022-10-10T17:07:01.238Z,13.10
2022-10-10T17:09:30.854Z,13.00
2022-10-10T17:11:58.983Z,12.90
2022-10-10T17:14:27.962Z,12.90
2022-10-10T17:17:13.217Z,12.90
2022-10-10T17:19:45.891Z,13.00
2022-10-10T17:22:16.530Z,13.10
2022-10-10T17:24:46.712Z,13.00
2022-10-10T17:27:14.995Z,13.00
2022-10-10T17:29:43.143Z,13.00
2022-10-10T17:32:11.174Z,12.90
2022-10-10T17:34:39.525Z,12.90
2022-10-10T17:37:07.532Z,12.90
2022-10-10T17:39:36.904Z,13.00
2022-10-10T17:42:05.498Z,13.00
2022-10-10T17:44:39.072Z,12.80
2022-10-10T17:47:10.256Z,12.90
2022-10-10T17:49:38.456Z,12.80
2022-10-10T17:52:06.632Z,12.80
2022-10-10T17:54:36.026Z,12.80
2022-10-10T17:57:04.093Z,12.80
2022-10-10T17:59:32.120Z,12.80
2022-10-10T18:02:00.091Z,12.80
2022-10-10T18:04:28.148Z,12.70
2022-10-10T18:06:57.037Z,12.70
2022-10-10T18:09:25.038Z,12.60
2022-10-10T18:11:55.205Z,12.50
2022-10-10T18:14:23.639Z,12.50
2022-10-10T18:16:51.653Z,12.50
2022-10-10T18:19:19.757Z,12.50
2022-10-10T18:21:50.372Z,12.50
2022-10-10T18:24:18.894Z,12.40
2022-10-10T18:26:47.143Z,12.30
2022-10-10T18:29:16.485Z,12.40
2022-10-10T18:31:45.436Z,12.30
2022-10-10T18:34:13.487Z,12.30
2022-10-10T18:36:44.092Z,12.20
2022-10-10T18:39:14.214Z,12.20
2022-10-10T18:41:42.469Z,12.10
2022-10-10T18:44:14.273Z,12.00
2022-10-10T18:46:44.395Z,12.00
2022-10-10T18:49:13.539Z,11.90
2022-10-10T18:51:43.183Z,11.90
2022-10-10T18:54:13.907Z,11.90
2022-10-10T18:56:42.874Z,11.90
2022-10-10T18:59:14.247Z,11.90
2022-10-10T19:01:45.634Z,11.90
2022-10-10T19:04:15.039Z,11.80
2022-10-10T19:06:43.602Z,11.80
2022-10-10T19:09:14.600Z,11.80
2022-10-10T19:11:44.925Z,11.80
2022-10-10T19:14:15.012Z,11.80
2022-10-10T19:16:45.125Z,11.70
2022-10-10T19:19:15.334Z,11.60
2022-10-10T19:21:44.930Z,11.60
2022-10-10T19:24:15.278Z,11.60
2022-10-10T19:26:44.655Z,11.60
2022-10-10T19:29:13.697Z,11.60
2022-10-10T19:31:41.813Z,11.50
2022-10-10T19:34:11.202Z,11.50
2022-10-10T19:36:41.427Z,11.50
2022-10-10T19:39:10.193Z,11.50
2022-10-10T19:41:38.264Z,11.40
2022-10-10T19:44:06.333Z,11.40
2022-10-10T19:46:37.479Z,11.40
2022-10-10T19:49:06.524Z,11.40
2022-10-10T19:51:35.933Z,11.40
2022-10-10T19:54:04.019Z,11.30
2022-10-10T19:56:32.094Z,11.30
2022-10-10T19:59:04.202Z,11.30
2022-10-10T20:01:32.665Z,11.30
2022-10-10T20:04:01.010Z,11.20
2022-10-10T20:06:29.141Z,11.20
2022-10-10T20:08:58.533Z,11.20
2022-10-10T20:11:27.206Z,11.20
2022-10-10T20:13:55.740Z,11.20
2022-10-10T20:16:25.329Z,11.10
2022-10-10T20:18:54.305Z,11.10
2022-10-10T20:21:24.280Z,11.10
2022-10-10T20:23:52.480Z,11.10
2022-10-10T20:26:24.193Z,11.10
2022-10-10T20:28:53.629Z,11.10
2022-10-10T20:31:23.160Z,11.10
2022-10-10T20:33:53.765Z,11.10
2022-10-10T20:36:23.753Z,11.10
2022-10-10T20:38:55.485Z,11.10
2022-10-10T20:41:26.612Z,11.10
2022-10-10T20:43:58.104Z,11.00
2022-10-10T20:46:27.512Z,10.90
2022-10-10T20:48:55.945Z,10.90
2022-10-10T20:51:24.514Z,10.90
2022-10-10T20:53:56.954Z,10.90
2022-10-10T20:56:27.993Z,10.80
2022-10-10T20:58:56.074Z,10.90
2022-10-10T21:01:25.729Z,10.80
2022-10-10T21:03:54.230Z,10.80
2022-10-10T21:06:24.832Z,10.80
2022-10-10T21:08:53.725Z,10.70
2022-10-10T21:11:22.694Z,10.70
2022-10-10T21:13:56.147Z,10.70
2022-10-10T21:16:26.102Z,10.70
2022-10-10T21:18:57.949Z,10.60
2022-10-10T21:21:28.192Z,10.60
2022-10-10T21:23:56.968Z,10.60
2022-10-10T21:26:27.006Z,10.60
2022-10-10T21:28:57.445Z,10.60
2022-10-10T21:31:27.315Z,10.60
2022-10-10T21:33:55.985Z,10.60
2022-10-10T21:36:25.632Z,10.60
2022-10-10T21:38:53.795Z,10.70
2022-10-10T21:41:22.935Z,10.70
2022-10-10T21:43:52.864Z,10.70
2022-10-10T21:46:24.807Z,10.70
2022-10-10T21:48:53.372Z,10.70
2022-10-10T21:51:22.248Z,10.60
2022-10-10T21:53:50.526Z,10.60
2022-10-10T21:56:19.283Z,10.60
2022-10-10T21:58:47.299Z,10.50
2022-10-10T22:01:17.684Z,10.50
2022-10-10T22:03:49.099Z,10.40
2022-10-10T22:06:18.655Z,10.40
2022-10-10T22:08:47.434Z,10.40
2022-10-10T22:11:17.962Z,10.40
2022-10-10T22:13:46.157Z,10.30
2022-10-10T22:16:14.474Z,10.30
2022-10-10T22:18:42.847Z,10.30
2022-10-10T22:21:15.098Z,10.30
2022-10-10T22:23:43.282Z,10.30
2022-10-10T22:26:13.408Z,10.20
2022-10-10T22:28:41.542Z,10.20
2022-10-10T22:31:11.130Z,10.10
2022-10-10T22:33:39.258Z,10.10
2022-10-10T22:36:08.872Z,10.10
2022-10-10T22:38:41.062Z,10.10
2022-10-10T22:41:09.697Z,10.10
2022-10-10T22:43:37.825Z,10.20
2022-10-10T22:46:06.588Z,10.20
2022-10-10T22:48:35.159Z,10.30
2022-10-10T22:51:05.418Z,10.30
2022-10-10T22:53:33.725Z,10.30
2022-10-10T22:56:03.631Z,10.30
2022-10-10T22:58:33.025Z,10.30
2022-10-10T23:01:05.280Z,10.30
2022-10-10T23:03:33.570Z,10.20
2022-10-10T23:06:01.825Z,10.10
2022-10-10T23:08:30.375Z,10.10
2022-10-10T23:10:58.477Z,10.10
2022-10-10T23:13:28.362Z,10.00
2022-10-10T23:15:56.637Z,9.90
2022-10-10T23:18:24.958Z,9.90
2022-10-10T23:20:52.958Z,9.90
2022-10-10T23:23:21.086Z,9.90
2022-10-10T23:25:49.782Z,9.80
2022-10-10T23:28:19.136Z,9.80
2022-10-10T23:30:49.296Z,9.80
2022-10-10T23:33:17.872Z,9.80
2022-10-10T23:35:45.975Z,9.80
2022-10-10T23:38:14.158Z,9.70
2022-10-10T23:40:42.158Z,9.70
2022-10-10T23:43:10.608Z,9.70
2022-10-10T23:45:41.258Z,9.70
2022-10-10T23:48:10.617Z,9.70
2022-10-10T23:50:38.633Z,9.70
2022-10-10T23:53:07.003Z,9.60
2022-10-10T23:55:35.344Z,9.60
2022-10-10T23:58:03.841Z,9.60
